Ominato, ?minato Guard District (RJSO)

Name?minato Guard District
CityOminato
CountryJapan
ICAORJSO
IATA
Altitude2 m
CoordinatesGoogle Map
Live Air TrafficLiveATC.net
METARRJSO 160851Z 24009KT 180V300 5000 -SHSN FEW008 SCT015 BKN025 M03/M08 Q1011 RMK 1ST008 4CU015 7CU025 A2988
2019-01-16 08:51:00 Wind: Southwest (240°) 4.63 m/s - Visibility: 5000 m - Weather: Light Showers Snow - Temperature: -3 °C - Dew point: -8 °C - Humidity: 68.8% - Pressure: 1011 hPa

Sorry, no flights used the airport in this database.